Time;durP1;ratioP1;P1;durP2;ratioP2;P2;SDS_P1;SDS_P2;PMS_P1;PMS_P2;Temp;Humidity;BMP_temperature;BMP_pressure;BME280_temperature;BME280_humidity;BME280_pressure;Samples;Min_cycle;Max_cycle;Signal;HPM_P1;HPM_P2
2023/02/20 00:00:28;;;;;;;230.73;119.82;;;9.00;99.90;;;;;;5018760;28;20030;-77
2023/02/20 00:02:54;;;;;;;237.77;121.70;;;9.00;99.90;;;;;;5012548;28;20080;-77
2023/02/20 00:05:20;;;;;;;241.27;118.30;;;9.00;99.90;;;;;;5012190;28;20493;-77
2023/02/20 00:07:46;;;;;;;231.45;118.45;;;9.00;99.90;;;;;;5010873;28;20064;-77
2023/02/20 00:10:12;;;;;;;230.40;116.25;;;9.00;99.90;;;;;;5012326;28;20022;-77
2023/02/20 00:12:39;;;;;;;233.20;118.97;;;9.00;99.90;;;;;;5011013;28;20026;-77
2023/02/20 00:15:05;;;;;;;234.98;117.47;;;9.00;99.90;;;;;;5016983;28;20064;-77
2023/02/20 00:17:31;;;;;;;233.27;119.05;;;9.10;99.90;;;;;;5012382;28;20054;-77
2023/02/20 00:19:57;;;;;;;238.63;118.90;;;9.00;99.90;;;;;;5011975;28;20058;-77
2023/02/20 00:22:23;;;;;;;240.15;120.72;;;9.00;99.90;;;;;;5012102;28;20029;-77
2023/02/20 00:24:49;;;;;;;230.70;119.55;;;9.00;99.90;;;;;;5044005;28;20485;-77
2023/02/20 00:27:14;;;;;;;222.52;115.70;;;9.10;99.90;;;;;;5010876;28;20033;-77
2023/02/20 00:29:40;;;;;;;233.73;115.85;;;9.00;99.90;;;;;;5012041;28;20029;-77
2023/02/20 00:32:06;;;;;;;224.18;116.57;;;9.00;99.90;;;;;;5006941;28;20022;-77
2023/02/20 00:34:31;;;;;;;228.75;114.53;;;9.10;99.90;;;;;;5010594;28;20114;-77
2023/02/20 00:36:57;;;;;;;218.52;114.88;;;9.10;99.90;;;;;;5019521;28;20029;-77
2023/02/20 00:39:23;;;;;;;226.88;115.95;;;9.10;99.90;;;;;;5011864;28;20026;-77
2023/02/20 00:41:49;;;;;;;222.23;115.07;;;9.10;99.90;;;;;;5012014;28;20026;-77
2023/02/20 00:44:15;;;;;;;218.35;110.07;;;9.10;99.90;;;;;;5012154;28;20053;-77
2023/02/20 00:46:41;;;;;;;225.02;114.20;;;9.10;99.90;;;;;;5011769;28;20022;-77
2023/02/20 00:49:06;;;;;;;218.23;117.07;;;9.10;99.90;;;;;;5003156;28;20149;-77
2023/02/20 00:51:34;;;;;;;221.18;114.28;;;9.10;99.90;;;;;;5011817;28;20030;-77
2023/02/20 00:54:00;;;;;;;221.00;116.30;;;9.10;99.90;;;;;;5008240;28;20072;-77
2023/02/20 00:56:26;;;;;;;219.10;114.60;;;9.10;99.90;;;;;;5011952;28;20436;-77
2023/02/20 00:58:55;;;;;;;230.88;116.75;;;9.00;99.90;;;;;;5033059;28;20049;-77
2023/02/20 01:01:21;;;;;;;233.30;120.85;;;9.00;99.90;;;;;;5033965;28;20285;-77
2023/02/20 01:03:47;;;;;;;209.32;112.20;;;9.00;99.90;;;;;;5015376;28;20097;-77
2023/02/20 01:06:12;;;;;;;228.07;117.97;;;9.00;99.90;;;;;;5017519;28;20025;-77
2023/02/20 01:08:38;;;;;;;223.40;115.93;;;9.00;99.90;;;;;;5017549;28;20160;-77
2023/02/20 01:11:04;;;;;;;231.95;118.07;;;9.00;99.90;;;;;;5035112;28;20032;-77
2023/02/20 01:13:30;;;;;;;231.85;118.18;;;9.00;99.90;;;;;;5035052;28;20017;-77
2023/02/20 01:15:55;;;;;;;234.98;115.90;;;9.00;99.90;;;;;;5035292;28;20072;-77
2023/02/20 01:18:21;;;;;;;233.98;118.85;;;9.10;99.90;;;;;;5017456;28;20057;-77
2023/02/20 01:20:47;;;;;;;232.00;118.47;;;9.10;99.90;;;;;;5034932;28;20370;-77
2023/02/20 01:23:13;;;;;;;223.20;115.90;;;9.10;99.90;;;;;;5017043;28;20463;-77
2023/02/20 01:25:38;;;;;;;229.20;117.65;;;9.10;99.90;;;;;;5034911;28;20040;-77
2023/02/20 01:28:04;;;;;;;222.75;114.43;;;9.10;99.90;;;;;;5025782;28;20029;-77
2023/02/20 01:30:30;;;;;;;224.48;115.03;;;9.00;99.90;;;;;;5031034;28;20030;-77
2023/02/20 01:32:55;;;;;;;218.63;113.20;;;9.00;99.90;;;;;;5034696;28;20174;-77
2023/02/20 01:35:21;;;;;;;223.85;115.45;;;9.00;99.90;;;;;;5034618;28;20116;-77
2023/02/20 01:37:47;;;;;;;222.73;114.35;;;9.00;99.90;;;;;;5034832;28;20025;-77
2023/02/20 01:40:21;;;;;;;239.68;118.53;;;9.00;99.90;;;;;;5034571;28;20037;-77
2023/02/20 01:42:46;;;;;;;226.52;115.85;;;9.00;99.90;;;;;;5013793;28;20441;-77
2023/02/20 01:45:21;;;;;;;212.27;110.03;;;9.00;99.90;;;;;;5034454;28;20022;-77
2023/02/20 01:47:51;;;;;;;246.05;116.90;;;9.00;99.90;;;;;;5017699;28;20041;-77
2023/02/20 01:50:25;;;;;;;228.57;119.63;;;9.00;99.90;;;;;;5034342;28;20485;-78
2023/02/20 01:52:55;;;;;;;229.32;114.55;;;9.00;99.90;;;;;;5034415;28;20049;-77
2023/02/20 01:55:26;;;;;;;215.90;113.97;;;9.00;99.90;;;;;;5034435;28;20022;-77
2023/02/20 01:58:03;;;;;;;219.07;114.85;;;9.00;99.90;;;;;;5032159;28;20501;-77
2023/02/20 02:00:29;;;;;;;212.18;112.05;;;9.00;99.90;;;;;;5019826;28;20042;-77
2023/02/20 02:03:03;;;;;;;219.52;114.00;;;9.00;99.90;;;;;;5030481;28;20026;-76
2023/02/20 02:05:31;;;;;;;216.40;111.75;;;9.00;99.90;;;;;;5034126;28;20021;-77
2023/02/20 02:07:58;;;;;;;221.05;113.13;;;9.00;99.90;;;;;;5034072;28;20033;-77
2023/02/20 02:10:30;;;;;;;228.05;116.82;;;9.00;99.90;;;;;;5032935;28;20021;-77
2023/02/20 02:12:57;;;;;;;223.30;115.15;;;9.00;99.90;;;;;;5032916;28;20362;-77
2023/02/20 02:15:23;;;;;;;229.25;114.13;;;9.00;99.90;;;;;;5033452;28;20103;-77
2023/02/20 02:17:52;;;;;;;216.40;113.18;;;9.00;99.90;;;;;;5034157;28;20488;-77
2023/02/20 02:21:03;;;;;;;222.02;116.32;;;9.00;99.90;;;;;;5033619;28;20103;-77
2023/02/20 02:23:47;;;;;;;232.48;115.70;;;9.00;99.90;;;;;;5031236;28;20112;-77
2023/02/20 02:26:37;;;;;;;218.85;114.68;;;9.00;99.90;;;;;;5029360;28;20508;-77
2023/02/20 02:29:33;;;;;;;226.63;115.15;;;9.00;99.90;;;;;;5029486;28;20033;-77
2023/02/20 02:32:18;;;;;;;233.38;114.88;;;9.00;99.90;;;;;;5011481;28;20017;-77
2023/02/20 02:35:16;;;;;;;226.55;114.78;;;9.00;99.90;;;;;;5031382;28;20037;-77
2023/02/20 02:37:59;;;;;;;219.23;115.50;;;9.00;99.90;;;;;;5015166;28;20393;-77
2023/02/20 02:40:38;;;;;;;214.25;112.95;;;9.00;99.90;;;;;;5012427;28;20129;-77
2023/02/20 02:43:25;;;;;;;218.60;110.53;;;9.00;99.90;;;;;;5013243;28;20040;-77
2023/02/20 02:45:54;;;;;;;221.00;113.60;;;9.00;99.90;;;;;;5046047;28;20028;-77
2023/02/20 02:48:33;;;;;;;214.68;111.45;;;9.00;99.90;;;;;;5024049;28;20030;-77
2023/02/20 02:51:04;;;;;;;217.80;112.90;;;9.00;99.90;;;;;;5013209;28;20013;-77
2023/02/20 02:53:30;;;;;;;213.65;112.45;;;9.00;99.90;;;;;;5033278;28;20021;-77
2023/02/20 02:56:20;;;;;;;222.85;115.20;;;9.00;99.90;;;;;;5029612;28;20543;-76
2023/02/20 02:58:42;;;;;;;220.48;112.25;;;9.00;99.90;;;;;;5032280;28;20512;-77
2023/02/20 03:01:07;;;;;;;210.73;111.80;;;9.00;99.90;;;;;;5029271;28;20037;-77
2023/02/20 03:03:39;;;;;;;217.35;113.57;;;9.00;99.90;;;;;;5029568;28;20485;-77
2023/02/20 03:06:24;;;;;;;207.23;110.13;;;9.00;99.90;;;;;;5032929;28;20086;-77
2023/02/20 03:08:56;;;;;;;197.98;104.57;;;9.00;99.90;;;;;;5011850;28;20468;-77
2023/02/20 03:11:25;;;;;;;211.57;106.47;;;9.00;99.90;;;;;;5012191;28;20100;-77
2023/02/20 03:16:55;;;;;;;215.02;111.63;;;9.00;99.90;;;;;;5032065;28;20083;-77
2023/02/20 03:19:40;;;;;;;209.18;107.45;;;8.90;99.90;;;;;;5030165;28;20049;-77
2023/02/20 03:22:21;;;;;;;223.07;110.20;;;8.90;99.90;;;;;;5029002;28;20040;-77
2023/02/20 03:24:56;;;;;;;228.00;119.10;;;8.90;99.90;;;;;;5028923;28;20480;-77
2023/02/20 03:27:37;;;;;;;224.68;114.47;;;8.90;99.90;;;;;;5014751;28;20112;-77
2023/02/20 03:30:08;;;;;;;224.77;115.65;;;8.90;99.90;;;;;;5029742;28;20022;-77
2023/02/20 03:43:43;;;;;;;210.52;109.03;;;8.90;99.90;;;;;;5030572;28;20060;-77
2023/02/20 03:46:17;;;;;;;220.95;110.90;;;8.90;99.90;;;;;;5014644;28;20033;-77
2023/02/20 03:48:48;;;;;;;226.07;113.53;;;8.90;99.90;;;;;;5014242;28;20030;-77
2023/02/20 03:54:00;;;;;;;212.90;110.20;;;8.90;99.90;;;;;;5032213;28;20087;-77
2023/02/20 03:56:33;;;;;;;224.73;114.15;;;9.00;99.90;;;;;;5032095;28;20025;-77
2023/02/20 03:59:08;;;;;;;207.73;110.32;;;9.00;99.90;;;;;;5031799;28;20049;-76
2023/02/20 04:01:36;;;;;;;210.00;111.50;;;9.00;99.90;;;;;;5044650;28;20080;-77
2023/02/20 04:04:05;;;;;;;220.38;114.43;;;9.00;99.90;;;;;;5029560;28;20401;-77
2023/02/20 04:06:34;;;;;;;210.38;109.03;;;9.00;99.90;;;;;;5022810;28;20242;-77
2023/02/20 04:09:14;;;;;;;213.77;108.70;;;9.00;99.90;;;;;;5031862;28;20033;-77
2023/02/20 04:11:51;;;;;;;223.63;112.78;;;9.00;99.90;;;;;;5014254;28;20025;-77
2023/02/20 04:14:21;;;;;;;226.90;112.68;;;9.00;99.90;;;;;;5029413;28;20159;-77
2023/02/20 04:16:53;;;;;;;222.07;111.95;;;8.90;99.90;;;;;;5031666;28;20030;-77
2023/02/20 04:19:18;;;;;;;;;;;9.00;99.90;;;;;;5029064;28;20052;-77
2023/02/20 04:21:58;;;;;;;211.60;108.03;;;8.90;99.90;;;;;;5031678;28;19948;-77
2023/02/20 04:24:48;;;;;;;215.25;108.70;;;8.90;99.90;;;;;;5028343;28;20029;-77
2023/02/20 04:27:14;;;;;;;211.65;109.63;;;9.00;99.90;;;;;;5028414;28;20477;-77
2023/02/20 04:29:40;;;;;;;208.35;109.80;;;9.00;99.90;;;;;;5031732;28;20021;-77
2023/02/20 04:32:06;;;;;;;209.15;109.55;;;9.00;99.90;;;;;;5027575;28;20473;-77
2023/02/20 04:34:32;;;;;;;209.65;108.38;;;9.00;99.90;;;;;;5031670;28;20072;-77
2023/02/20 04:37:17;;;;;;;215.18;106.47;;;9.00;99.90;;;;;;5031580;28;20077;-77
2023/02/20 04:39:44;;;;;;;214.20;108.40;;;9.00;99.90;;;;;;5031350;28;20075;-77
2023/02/20 04:42:09;;;;;;;205.70;110.03;;;9.00;99.90;;;;;;5031700;28;20502;-77
2023/02/20 04:44:35;;;;;;;201.20;105.40;;;9.00;99.90;;;;;;5031564;28;20067;-77
2023/02/20 04:47:04;;;;;;;194.18;104.68;;;9.10;99.90;;;;;;5022695;28;20029;-77
2023/02/20 04:49:30;;;;;;;199.70;101.03;;;9.10;99.90;;;;;;5031205;28;20022;-77
2023/02/20 04:51:55;;;;;;;206.02;106.03;;;9.00;99.90;;;;;;5022535;28;20385;-77
2023/02/20 04:54:21;;;;;;;202.20;108.13;;;9.00;99.90;;;;;;5031429;28;20030;-77
2023/02/20 04:56:47;;;;;;;208.32;106.00;;;9.00;99.90;;;;;;5031553;28;20025;-77
2023/02/20 04:59:13;;;;;;;203.57;106.18;;;9.00;99.90;;;;;;5031306;28;20350;-77
2023/02/20 05:01:39;;;;;;;198.30;104.00;;;9.00;99.90;;;;;;5009920;28;20022;-77
2023/02/20 05:04:04;;;;;;;203.00;106.50;;;9.00;99.90;;;;;;5028841;28;20026;-76
2023/02/20 05:06:30;;;;;;;198.00;104.93;;;9.00;99.90;;;;;;4999557;28;20037;-77
2023/02/20 05:08:56;;;;;;;194.73;103.05;;;9.00;99.90;;;;;;5030290;28;20030;-77
2023/02/20 05:11:22;;;;;;;198.45;103.75;;;9.00;99.90;;;;;;5013670;28;20029;-77
2023/02/20 05:13:47;;;;;;;195.45;101.57;;;9.00;99.90;;;;;;5031353;28;20033;-77
2023/02/20 05:16:13;;;;;;;196.60;103.15;;;8.90;99.90;;;;;;5005941;28;20026;-77
2023/02/20 05:18:39;;;;;;;199.40;103.53;;;8.90;99.90;;;;;;5031272;28;20481;-77
2023/02/20 05:23:49;;;;;;;196.82;102.95;;;8.90;99.90;;;;;;5031138;28;20120;-77
2023/02/20 05:26:20;;;;;;;200.48;104.70;;;8.90;99.90;;;;;;5031176;28;20025;-77
2023/02/20 05:28:46;;;;;;;185.65;99.85;;;8.90;99.90;;;;;;5013271;28;20374;-77
2023/02/20 05:31:12;;;;;;;197.30;104.20;;;8.90;99.90;;;;;;5031185;28;20029;-77
2023/02/20 05:33:38;;;;;;;194.93;104.13;;;8.90;99.90;;;;;;5031258;28;20511;-77
2023/02/20 05:36:04;;;;;;;184.93;97.88;;;8.80;99.90;;;;;;5030928;28;20030;-77
2023/02/20 05:38:30;;;;;;;194.52;100.38;;;8.80;99.90;;;;;;5009722;28;20128;-77
2023/02/20 05:40:55;;;;;;;176.85;94.40;;;8.80;99.90;;;;;;5031169;28;20056;-77
2023/02/20 05:43:21;;;;;;;173.50;94.22;;;8.80;99.90;;;;;;5031320;28;20385;-77
2023/02/20 05:45:47;;;;;;;174.07;92.55;;;8.80;99.90;;;;;;5016908;28;20033;-77
2023/02/20 05:48:13;;;;;;;172.73;91.78;;;8.80;99.90;;;;;;5009186;28;20116;-77
2023/02/20 05:50:42;;;;;;;169.30;87.97;;;8.80;99.90;;;;;;5034339;28;20026;-77
2023/02/20 05:53:08;;;;;;;168.70;86.90;;;8.90;99.90;;;;;;5034408;28;20026;-77
2023/02/20 05:55:33;;;;;;;156.88;84.28;;;8.80;99.90;;;;;;5034513;28;20021;-77
2023/02/20 05:57:59;;;;;;;154.95;81.78;;;8.80;99.90;;;;;;5032280;28;20173;-77
2023/02/20 06:00:25;;;;;;;154.32;84.18;;;8.80;99.90;;;;;;5031371;28;20076;-78
2023/02/20 06:02:51;;;;;;;145.20;77.38;;;8.80;99.90;;;;;;5034058;28;20044;-77
2023/02/20 06:05:17;;;;;;;147.00;77.43;;;8.80;99.90;;;;;;5024652;28;20033;-77
2023/02/20 06:07:46;;;;;;;149.80;79.30;;;8.80;99.90;;;;;;5033549;28;20033;-77
2023/02/20 06:10:13;;;;;;;145.38;76.35;;;8.80;99.90;;;;;;5033584;28;20392;-77
2023/02/20 06:12:39;;;;;;;133.63;71.20;;;8.80;99.90;;;;;;5033360;28;20014;-77
2023/02/20 06:15:08;;;;;;;132.05;72.05;;;8.80;99.90;;;;;;5033629;28;20040;-77
2023/02/20 06:17:33;;;;;;;125.90;70.90;;;8.80;99.90;;;;;;5033752;28;20033;-77
2023/02/20 06:19:59;;;;;;;127.68;70.70;;;8.80;99.90;;;;;;5033397;28;20022;-77
2023/02/20 06:22:25;;;;;;;126.93;68.82;;;8.80;99.90;;;;;;5033007;28;20116;-77
2023/02/20 06:24:50;;;;;;;115.97;66.05;;;8.80;99.90;;;;;;5033015;28;20066;-77
2023/02/20 06:27:16;;;;;;;118.53;68.43;;;8.80;99.90;;;;;;5032747;28;20083;-77
2023/02/20 06:29:45;;;;;;;122.72;67.82;;;8.80;99.90;;;;;;5013416;28;20019;-77
2023/02/20 06:32:11;;;;;;;119.72;66.05;;;8.80;99.90;;;;;;5032404;28;20051;-77
2023/02/20 06:34:37;;;;;;;127.93;69.05;;;8.80;99.90;;;;;;5032179;28;20022;-77
2023/02/20 06:37:03;;;;;;;118.45;64.38;;;8.80;99.90;;;;;;5004843;28;20022;-77
2023/02/20 06:39:29;;;;;;;125.20;65.18;;;8.80;99.90;;;;;;5032944;28;20021;-77
2023/02/20 06:41:55;;;;;;;115.65;63.17;;;8.80;99.90;;;;;;5033051;28;20029;-77
2023/02/20 06:44:21;;;;;;;117.95;65.55;;;8.80;99.90;;;;;;5033493;28;20025;-77
2023/02/20 06:46:47;;;;;;;110.97;65.68;;;8.80;99.90;;;;;;5015407;28;20097;-77
2023/02/20 06:49:13;;;;;;;119.05;66.07;;;8.80;99.90;;;;;;5015286;28;20136;-77
2023/02/20 06:51:39;;;;;;;125.38;68.68;;;8.80;99.90;;;;;;5033278;28;20034;-77
2023/02/20 06:54:06;;;;;;;122.13;69.25;;;8.80;99.90;;;;;;5033359;28;20124;-77
2023/02/20 06:56:34;;;;;;;129.63;69.05;;;8.80;99.90;;;;;;5032504;28;20031;-77
2023/02/20 06:59:05;;;;;;;122.70;66.70;;;8.80;99.90;;;;;;5033114;28;20378;-77
2023/02/20 07:01:40;;;;;;;115.97;64.38;;;8.80;99.90;;;;;;5028840;28;20091;-77
2023/02/20 07:04:06;;;;;;;114.97;65.57;;;8.80;99.90;;;;;;5029829;28;20025;-77
2023/02/20 07:06:32;;;;;;;121.18;67.57;;;8.90;99.90;;;;;;5015153;28;20405;-77
2023/02/20 07:08:58;;;;;;;120.30;67.78;;;8.90;99.90;;;;;;5024052;28;20030;-77
2023/02/20 07:11:24;;;;;;;126.25;71.15;;;8.90;99.90;;;;;;5032567;28;20017;-77
2023/02/20 07:13:50;;;;;;;124.63;70.50;;;8.90;99.90;;;;;;5032148;28;20032;-77
2023/02/20 07:16:19;;;;;;;128.63;71.15;;;8.90;99.90;;;;;;5014492;28;20237;-77
2023/02/20 07:18:46;;;;;;;119.82;67.65;;;9.00;99.90;;;;;;5031339;28;20107;-76
2023/02/20 07:21:12;;;;;;;127.25;68.78;;;9.00;99.90;;;;;;5006902;28;20029;-77
2023/02/20 07:23:37;;;;;;;118.55;66.55;;;9.00;99.90;;;;;;5032254;28;20025;-77
2023/02/20 07:26:06;;;;;;;115.78;67.82;;;9.10;99.90;;;;;;5032492;28;20025;-77
2023/02/20 07:28:35;;;;;;;122.95;67.93;;;9.00;99.90;;;;;;5014347;28;20370;-77
2023/02/20 07:31:01;;;;;;;119.70;67.32;;;9.00;99.90;;;;;;5005343;28;20080;-77
2023/02/20 07:33:27;;;;;;;116.00;67.30;;;9.00;99.90;;;;;;5028811;28;20022;-77
2023/02/20 07:35:52;;;;;;;118.85;68.72;;;8.90;99.90;;;;;;5032036;28;20025;-77
2023/02/20 07:38:18;;;;;;;119.57;67.10;;;8.90;99.90;;;;;;5032073;28;20018;-77
2023/02/20 07:40:43;;;;;;;116.65;66.43;;;9.00;99.90;;;;;;5032213;28;20029;-77
2023/02/20 07:43:09;;;;;;;122.85;66.65;;;9.00;99.90;;;;;;5032230;28;20021;-77
2023/02/20 07:45:35;;;;;;;117.93;63.95;;;9.00;99.90;;;;;;5032030;28;20090;-77
2023/02/20 07:48:00;;;;;;;118.65;63.97;;;9.00;99.90;;;;;;5030895;28;20029;-79
2023/02/20 07:50:26;;;;;;;120.00;64.53;;;9.00;99.90;;;;;;5012016;28;20025;-79
2023/02/20 07:52:55;;;;;;;116.05;66.10;;;9.10;99.90;;;;;;5007801;28;20075;-79
2023/02/20 07:55:20;;;;;;;114.97;62.83;;;9.10;99.90;;;;;;5033213;28;20022;-79
2023/02/20 07:57:53;;;;;;;121.45;64.65;;;9.10;99.90;;;;;;5015164;28;20053;-79
2023/02/20 08:00:21;;;;;;;109.65;61.65;;;9.10;99.90;;;;;;5011686;28;20493;-79
2023/02/20 08:02:46;;;;;;;114.93;63.50;;;9.20;99.90;;;;;;5011498;28;20041;-79
2023/02/20 08:05:12;;;;;;;118.60;63.10;;;9.20;99.90;;;;;;5033010;28;20029;-79
2023/02/20 08:07:42;;;;;;;114.80;65.22;;;9.20;99.90;;;;;;5031937;28;20029;-79
2023/02/20 08:10:08;;;;;;;115.13;64.95;;;9.30;99.90;;;;;;5029066;28;20033;-79
2023/02/20 08:12:34;;;;;;;124.57;66.18;;;9.30;99.90;;;;;;5032866;28;20106;-79
2023/02/20 08:14:59;;;;;;;112.88;62.95;;;9.30;99.90;;;;;;5032926;28;20122;-78
2023/02/20 08:17:25;;;;;;;119.65;63.35;;;9.40;99.90;;;;;;5032808;28;20025;-78
2023/02/20 08:19:51;;;;;;;114.10;62.90;;;9.40;99.90;;;;;;5032747;28;20037;-78
2023/02/20 08:22:16;;;;;;;125.10;66.13;;;9.40;99.90;;;;;;5010918;28;20481;-79
2023/02/20 08:24:42;;;;;;;122.03;64.22;;;9.50;99.90;;;;;;5032292;28;20032;-80
2023/02/20 08:27:08;;;;;;;120.28;66.75;;;9.50;99.90;;;;;;5013830;28;20029;-80
2023/02/20 08:29:33;;;;;;;127.07;69.55;;;9.50;99.90;;;;;;5014361;28;20029;-79
2023/02/20 08:31:59;;;;;;;124.35;67.38;;;9.60;99.90;;;;;;5024461;28;20029;-80
2023/02/20 08:34:24;;;;;;;141.00;73.75;;;9.60;99.90;;;;;;5032484;28;20444;-80
2023/02/20 08:36:50;;;;;;;142.57;76.53;;;9.70;99.90;;;;;;5031887;28;20075;-79
2023/02/20 08:39:16;;;;;;;168.48;87.00;;;9.80;99.90;;;;;;5032084;28;20112;-80
2023/02/20 08:41:46;;;;;;;165.35;87.18;;;9.70;99.90;;;;;;5014722;28;20030;-79
2023/02/20 08:44:12;;;;;;;182.07;94.07;;;9.80;99.90;;;;;;5032876;28;20160;-79
2023/02/20 08:46:45;;;;;;;182.23;97.20;;;9.70;99.90;;;;;;5032579;28;20109;-79
2023/02/20 08:49:16;;;;;;;183.40;96.97;;;9.70;99.90;;;;;;5032271;28;20116;-80
2023/02/20 08:51:46;;;;;;;179.77;96.23;;;9.60;99.90;;;;;;5031404;28;20025;-79
2023/02/20 08:54:13;;;;;;;178.48;97.07;;;9.70;99.90;;;;;;5030985;28;20268;-79
2023/02/20 08:56:43;;;;;;;180.98;96.53;;;9.70;99.90;;;;;;5031082;28;20036;-80
2023/02/20 08:59:08;;;;;;;187.60;101.15;;;9.70;99.90;;;;;;5023326;28;20487;-80
2023/02/20 09:01:34;;;;;;;183.23;99.35;;;9.80;99.90;;;;;;5021619;28;20095;-80
2023/02/20 09:04:01;;;;;;;181.45;98.68;;;9.80;99.90;;;;;;5031803;28;20088;-80
2023/02/20 09:06:27;;;;;;;191.43;100.43;;;9.80;99.90;;;;;;5031508;28;20384;-80
2023/02/20 09:08:54;;;;;;;185.45;98.38;;;9.80;99.90;;;;;;5031747;28;20033;-79
2023/02/20 09:11:20;;;;;;;185.77;97.80;;;9.90;99.90;;;;;;5031501;28;20025;-80
2023/02/20 09:13:48;;;;;;;186.45;98.00;;;9.90;99.90;;;;;;5013594;28;20029;-80
2023/02/20 09:16:18;;;;;;;184.80;102.28;;;10.00;99.90;;;;;;5043105;28;20036;-80
2023/02/20 09:18:47;;;;;;;188.70;100.80;;;10.10;99.90;;;;;;5032145;28;20079;-80
2023/02/20 09:21:17;;;;;;;187.73;98.13;;;10.10;99.90;;;;;;5035165;28;20029;-79
2023/02/20 09:23:43;;;;;;;193.45;99.05;;;10.20;99.90;;;;;;5031964;28;20080;-80
2023/02/20 09:26:09;;;;;;;192.45;101.68;;;10.30;99.90;;;;;;5035223;28;20029;-80
2023/02/20 09:28:34;;;;;;;182.77;98.43;;;10.30;99.90;;;;;;5035392;28;20063;-80
2023/02/20 09:31:01;;;;;;;189.82;100.97;;;10.40;99.90;;;;;;5034906;28;20032;-80
2023/02/20 09:33:27;;;;;;;188.38;100.10;;;10.40;99.90;;;;;;5017445;28;20021;-80
2023/02/20 09:35:54;;;;;;;189.30;102.40;;;10.50;99.90;;;;;;5025906;28;20026;-80
2023/02/20 09:38:25;;;;;;;188.18;100.80;;;10.50;99.90;;;;;;5017071;28;20492;-80
2023/02/20 09:40:54;;;;;;;185.30;99.10;;;10.60;99.90;;;;;;5035213;28;20098;-79
2023/02/20 09:43:41;;;;;;;184.90;102.70;;;10.60;99.90;;;;;;5035044;28;20021;-79
2023/02/20 09:46:19;;;;;;;186.75;99.93;;;10.70;99.90;;;;;;5030737;28;20030;-80
2023/02/20 09:49:02;;;;;;;189.70;100.30;;;10.70;99.90;;;;;;5034428;28;20116;-80
2023/02/20 09:51:34;;;;;;;185.25;97.40;;;10.80;99.90;;;;;;5050147;28;20022;-80
2023/02/20 09:54:06;;;;;;;;;;;10.90;99.90;;;;;;5014442;28;20144;-79
2023/02/20 09:56:49;;;;;;;184.17;95.73;;;10.90;99.90;;;;;;5034732;28;19905;-80
2023/02/20 09:59:44;;;;;;;173.75;91.95;;;10.90;99.90;;;;;;5014638;28;20057;-79
2023/02/20 10:02:14;;;;;;;184.70;93.72;;;11.00;99.90;;;;;;5031247;28;20041;-80
2023/02/20 10:04:43;;;;;;;180.15;95.57;;;11.10;99.90;;;;;;5029778;28;20392;-79
2023/02/20 10:07:29;;;;;;;175.23;94.00;;;11.20;99.90;;;;;;5034507;28;20029;-80
2023/02/20 10:09:57;;;;;;;175.00;91.88;;;11.20;99.90;;;;;;5032108;28;20029;-80
2023/02/20 10:12:29;;;;;;;177.68;95.18;;;11.30;99.90;;;;;;5034430;28;20431;-79
2023/02/20 10:15:24;;;;;;;167.10;92.65;;;11.30;99.90;;;;;;5027509;28;20029;-80
2023/02/20 10:18:14;;;;;;;180.65;91.43;;;11.30;99.90;;;;;;5021382;28;20076;-80
2023/02/20 10:20:46;;;;;;;163.60;89.93;;;11.40;99.90;;;;;;5028224;28;20041;-80
2023/02/20 10:23:36;;;;;;;170.82;89.50;;;11.50;99.90;;;;;;5034120;28;20029;-80
2023/02/20 10:26:12;;;;;;;161.70;85.75;;;11.60;99.90;;;;;;5025443;28;20099;-80
2023/02/20 10:28:41;;;;;;;154.73;83.88;;;11.70;99.90;;;;;;5033939;28;20477;-80
2023/02/20 10:31:32;;;;;;;149.70;76.85;;;11.70;99.90;;;;;;5029027;28;20025;-80
2023/02/20 10:34:17;;;;;;;148.40;75.97;;;11.80;99.90;;;;;;5030206;28;20481;-79
2023/02/20 10:36:47;;;;;;;134.75;71.78;;;11.80;99.90;;;;;;5033500;28;20017;-80
2023/02/20 10:39:16;;;;;;;139.02;72.35;;;12.00;99.90;;;;;;5024809;28;20049;-80
2023/02/20 10:41:50;;;;;;;143.35;72.30;;;12.00;99.90;;;;;;5033665;28;20555;-80
2023/02/20 10:44:30;;;;;;;140.82;71.13;;;12.10;99.90;;;;;;5026758;28;20453;-80
2023/02/20 10:47:17;;;;;;;136.27;71.10;;;12.20;99.90;;;;;;5033766;28;20029;-79
2023/02/20 10:49:56;;;;;;;135.05;71.75;;;12.30;99.90;;;;;;5033495;28;20033;-79
2023/02/20 10:52:27;;;;;;;131.30;67.63;;;12.40;99.90;;;;;;5033238;28;20120;-79
2023/02/20 10:55:17;;;;;;;122.27;62.87;;;12.50;99.90;;;;;;5033418;28;20034;-79
2023/02/20 10:57:50;;;;;;;112.63;59.78;;;12.70;99.90;;;;;;5011973;28;20061;-79
2023/02/20 11:00:28;;;;;;;111.32;57.63;;;12.60;99.90;;;;;;5029483;28;20572;-79
2023/02/20 11:03:00;;;;;;;106.38;56.75;;;12.60;99.90;;;;;;5025737;28;20057;-79
2023/02/20 11:05:30;;;;;;;122.22;61.38;;;12.60;99.90;;;;;;5033443;28;20414;-79
2023/02/20 11:07:55;;;;;;;105.13;55.80;;;12.60;99.90;;;;;;5032672;28;20044;-79
2023/02/20 11:10:21;;;;;;;86.90;45.95;;;12.80;99.90;;;;;;5033010;28;20018;-79
2023/02/20 11:12:59;;;;;;;86.68;45.80;;;12.80;99.90;;;;;;5021553;28;20021;-78
2023/02/20 11:15:29;;;;;;;91.22;45.67;;;12.90;99.90;;;;;;5029110;28;20504;-78
2023/02/20 11:17:58;;;;;;;84.75;47.35;;;12.90;99.90;;;;;;5032847;28;20489;-79
2023/02/20 11:20:44;;;;;;;86.57;46.05;;;12.90;99.90;;;;;;5032783;28;20034;-78
2023/02/20 11:23:30;;;;;;;86.53;43.33;;;12.90;99.90;;;;;;5032034;28;20025;-79
2023/02/20 11:26:20;;;;;;;90.03;47.20;;;12.90;99.90;;;;;;5031640;28;20127;-78
2023/02/20 11:29:03;;;;;;;100.45;51.22;;;12.90;99.90;;;;;;5032225;28;20033;-79
2023/02/20 11:31:30;;;;;;;98.75;50.97;;;12.90;99.90;;;;;;5028189;28;20022;-78
2023/02/20 11:33:56;;;;;;;94.47;53.20;;;13.00;99.90;;;;;;5003298;28;20169;-79
2023/02/20 11:36:28;;;;;;;92.07;47.45;;;12.90;99.90;;;;;;5022893;28;20563;-79
2023/02/20 11:39:05;;;;;;;87.85;49.08;;;12.90;99.90;;;;;;5032722;28;20036;-79
2023/02/20 11:41:35;;;;;;;92.65;47.47;;;12.90;99.90;;;;;;5030693;28;20018;-79
2023/02/20 11:44:09;;;;;;;100.13;49.03;;;12.90;99.90;;;;;;5023050;28;20033;-79
2023/02/20 11:46:35;;;;;;;95.20;50.67;;;13.00;99.90;;;;;;5026692;28;20150;-79
2023/02/20 11:49:20;;;;;;;106.10;52.70;;;13.20;99.90;;;;;;5031596;28;20602;-79
2023/02/20 11:51:48;;;;;;;110.43;54.83;;;13.20;99.90;;;;;;5029093;28;20026;-79
2023/02/20 11:54:24;;;;;;;103.60;52.78;;;13.20;99.90;;;;;;5032402;28;20009;-78
2023/02/20 11:57:12;;;;;;;108.68;53.80;;;13.30;99.90;;;;;;5029008;28;20033;-79
2023/02/20 11:59:39;;;;;;;97.75;52.40;;;13.40;99.90;;;;;;5009367;28;20043;-78
2023/02/20 12:02:16;;;;;;;98.05;53.30;;;13.50;99.90;;;;;;5029714;28;20040;-79
2023/02/20 12:05:03;;;;;;;107.40;53.17;;;13.60;99.90;;;;;;5022473;28;20022;-79
2023/02/20 12:07:34;;;;;;;104.55;53.97;;;13.80;99.90;;;;;;5002737;28;20034;-78
2023/02/20 12:10:22;;;;;;;104.20;52.78;;;13.80;99.90;;;;;;5032155;28;20161;-79
2023/02/20 12:12:49;;;;;;;106.57;55.53;;;13.80;99.90;;;;;;5029880;28;20030;-79
2023/02/20 12:15:16;;;;;;;117.68;58.42;;;13.70;99.90;;;;;;5014437;28;20090;-79
2023/02/20 12:18:03;;;;;;;117.03;62.30;;;13.60;99.90;;;;;;5032140;28;20061;-78
2023/02/20 12:20:30;;;;;;;113.95;60.78;;;13.60;99.90;;;;;;5011367;28;20405;-78
2023/02/20 12:23:04;;;;;;;121.85;61.13;;;13.50;99.90;;;;;;5032049;28;20033;-78
2023/02/20 12:26:13;;;;;;;124.80;65.13;;;13.40;99.90;;;;;;5014366;28;20029;-78
2023/02/20 12:28:50;;;;;;;115.55;61.83;;;13.30;99.90;;;;;;4960893;28;20035;-78
2023/02/20 12:31:43;;;;;;;123.03;63.50;;;13.20;99.90;;;;;;5018715;28;20120;-79
2023/02/20 12:34:24;;;;;;;126.13;63.28;;;13.20;99.90;;;;;;5028923;28;20452;-78
2023/02/20 12:37:05;;;;;;;124.85;62.67;;;13.10;99.90;;;;;;5014107;28;20060;-78
2023/02/20 12:39:52;;;;;;;132.77;64.97;;;13.10;99.90;;;;;;5031916;28;20025;-78
2023/02/20 12:42:30;;;;;;;125.35;64.72;;;13.20;99.90;;;;;;5030649;28;20022;-79
2023/02/20 12:45:15;;;;;;;125.05;61.90;;;13.20;99.90;;;;;;5011761;28;20112;-78
2023/02/20 12:47:43;;;;;;;125.90;63.75;;;13.20;99.90;;;;;;5029026;28;20458;-78
2023/02/20 12:50:27;;;;;;;123.35;62.75;;;13.10;99.90;;;;;;5031682;28;20160;-78
2023/02/20 12:53:10;;;;;;;116.85;61.70;;;13.10;99.90;;;;;;5029305;28;20496;-78
2023/02/20 12:55:43;;;;;;;125.32;60.20;;;13.10;99.90;;;;;;5032985;28;20129;-78
2023/02/20 12:58:11;;;;;;;126.72;61.05;;;13.00;99.90;;;;;;5026768;28;20045;-78